Yenbo Airport
OEYN : now visible

Airfield :











YOU CAN JOIN US ON...

 
LOGIN :

Register | Disclaimer

   EN    FR    IT 

 









Legend :    VFR   Marginal VFR   IFR   Intensive IFR   Very Intensive IFR
Visi :
Ceiling :
>= 8 km
>= 3000ft
5 to 8 km
1000 to 3000 ft
1500m to 5 km
500 to 1000 ft
800 to 1500m
200 to 500 ft
< 800m
< 200 ft
Symbols :   Thunderstorms  Fog  Heavy snow  Heavy precipitations  Wind > 20 kt






- Airport Elevation : 26 ft
- IATA code : YNB


OEYN - Yenbo

CURRENT METAR :
  • 171800Z 27007KT CAVOK 24/15 Q1010 NOSIG

EXPIRED METARs :
  • 171700Z 27010KT CAVOK 25/14 Q1010 NOSIG
  • 171600Z 28015KT CAVOK 26/13 Q1009 NOSIG

TAF TAF OEYN
Valid from the 17 at 12:00 until the 18 at 18:00 UTC


171100Z 1712/1818 30014KT 7000 NSC
BECMG 1720/1723 VRB03KT
BECMG 1807/1809 28014KT
BECMG 1816/1818 VRB03KT



MET'MAP, your aeronautical weather chart ! - Copyright ORBIFLY December 2007 - Disclaimer

ORBIFLY MET'MAP TEAM :

Programming & Development : Alexandra Zaïnal
Concept & original design : Baudouin d'Aumeries
Assistance for programming : Marc-Olivier Méhu
Technical & hardware support : Manuel Goepfert

Contact : metmap@orbifly.com




SOURCES & CREDITS :

   NOAA       Earth
Advisory